sensor_id;sensor_type;location;lat;lon;timestamp;pressure;altitude;pressure_sealevel;temperature;humidity
81230;BME280;70701;44.452;18.652;2024-01-16T00:01:21;98107.53;;;1.21;99.79
81230;BME280;70701;44.452;18.652;2024-01-16T00:03:47;98090.66;;;1.19;99.75
81230;BME280;70701;44.452;18.652;2024-01-16T00:06:13;98093.41;;;1.19;99.80
81230;BME280;70701;44.452;18.652;2024-01-16T00:08:38;98109.16;;;0.78;100.00
81230;BME280;70701;44.452;18.652;2024-01-16T00:11:04;98118.94;;;0.83;100.00
81230;BME280;70701;44.452;18.652;2024-01-16T00:13:30;98122.47;;;0.91;100.00
81230;BME280;70701;44.452;18.652;2024-01-16T00:15:56;98134.59;;;0.86;100.00
81230;BME280;70701;44.452;18.652;2024-01-16T00:18:22;98133.06;;;0.71;100.00
81230;BME280;70701;44.452;18.652;2024-01-16T00:20:48;98136.94;;;0.81;100.00
81230;BME280;70701;44.452;18.652;2024-01-16T00:23:14;98136.94;;;0.88;100.00
81230;BME280;70701;44.452;18.652;2024-01-16T00:25:40;98136.19;;;0.84;100.00
81230;BME280;70701;44.452;18.652;2024-01-16T00:28:06;98159.28;;;0.86;100.00
81230;BME280;70701;44.452;18.652;2024-01-16T00:30:32;98175.34;;;0.84;100.00
81230;BME280;70701;44.452;18.652;2024-01-16T00:32:59;98173.41;;;0.85;100.00
81230;BME280;70701;44.452;18.652;2024-01-16T00:35:25;98189.06;;;0.88;100.00
81230;BME280;70701;44.452;18.652;2024-01-16T00:37:51;98202.38;;;0.89;100.00
81230;BME280;70701;44.452;18.652;2024-01-16T00:40:17;98211.38;;;0.97;100.00
81230;BME280;70701;44.452;18.652;2024-01-16T00:42:43;98213.34;;;0.96;100.00
81230;BME280;70701;44.452;18.652;2024-01-16T00:45:09;98225.91;;;0.94;100.00
81230;BME280;70701;44.452;18.652;2024-01-16T00:47:34;98242.72;;;0.78;100.00
81230;BME280;70701;44.452;18.652;2024-01-16T00:50:00;98242.31;;;0.51;100.00
81230;BME280;70701;44.452;18.652;2024-01-16T00:52:27;98246.25;;;0.68;100.00
81230;BME280;70701;44.452;18.652;2024-01-16T00:54:53;98252.53;;;0.75;100.00
81230;BME280;70701;44.452;18.652;2024-01-16T00:57:19;98266.22;;;0.86;100.00
81230;BME280;70701;44.452;18.652;2024-01-16T00:59:48;98252.13;;;0.88;100.00
81230;BME280;70701;44.452;18.652;2024-01-16T01:02:14;98242.34;;;0.87;100.00
81230;BME280;70701;44.452;18.652;2024-01-16T01:04:40;98236.88;;;0.87;100.00
81230;BME280;70701;44.452;18.652;2024-01-16T01:07:07;98245.88;;;0.84;100.00
81230;BME280;70701;44.452;18.652;2024-01-16T01:09:33;98240.75;;;0.86;100.00
81230;BME280;70701;44.452;18.652;2024-01-16T01:11:59;98245.88;;;0.87;100.00
81230;BME280;70701;44.452;18.652;2024-01-16T01:14:25;98258.81;;;0.90;100.00
81230;BME280;70701;44.452;18.652;2024-01-16T01:16:52;98264.69;;;0.89;100.00
81230;BME280;70701;44.452;18.652;2024-01-16T01:19:18;98272.91;;;0.89;100.00
81230;BME280;70701;44.452;18.652;2024-01-16T01:21:43;98282.28;;;0.91;100.00
81230;BME280;70701;44.452;18.652;2024-01-16T01:24:09;98298.38;;;0.89;100.00
81230;BME280;70701;44.452;18.652;2024-01-16T01:26:35;98294.44;;;0.97;100.00
81230;BME280;70701;44.452;18.652;2024-01-16T01:29:01;98294.06;;;0.99;100.00
81230;BME280;70701;44.452;18.652;2024-01-16T01:31:27;98301.13;;;0.96;100.00
81230;BME280;70701;44.452;18.652;2024-01-16T01:33:53;98297.19;;;0.80;100.00
81230;BME280;70701;44.452;18.652;2024-01-16T01:36:18;98324.22;;;0.85;100.00
81230;BME280;70701;44.452;18.652;2024-01-16T01:38:44;98325.38;;;0.80;100.00
81230;BME280;70701;44.452;18.652;2024-01-16T01:41:10;98325.75;;;0.78;100.00
81230;BME280;70701;44.452;18.652;2024-01-16T01:43:37;98343.78;;;0.80;100.00
81230;BME280;70701;44.452;18.652;2024-01-16T01:46:18;98331.66;;;0.77;100.00
81230;BME280;70701;44.452;18.652;2024-01-16T01:48:46;98331.25;;;0.78;100.00
81230;BME280;70701;44.452;18.652;2024-01-16T01:51:14;98319.13;;;0.87;100.00
81230;BME280;70701;44.452;18.652;2024-01-16T01:53:42;98312.84;;;0.90;100.00
81230;BME280;70701;44.452;18.652;2024-01-16T01:56:11;98306.97;;;0.91;100.00
81230;BME280;70701;44.452;18.652;2024-01-16T01:58:37;98312.88;;;0.97;100.00
81230;BME280;70701;44.452;18.652;2024-01-16T02:01:05;98310.50;;;0.95;100.00
81230;BME280;70701;44.452;18.652;2024-01-16T02:03:50;98332.75;;;0.51;100.00
81230;BME280;70701;44.452;18.652;2024-01-16T02:06:16;98337.44;;;0.54;100.00
81230;BME280;70701;44.452;18.652;2024-01-16T02:08:43;98338.66;;;0.67;100.00
81230;BME280;70701;44.452;18.652;2024-01-16T02:11:09;98348.09;;;0.77;100.00
81230;BME280;70701;44.452;18.652;2024-01-16T02:13:36;98348.50;;;0.83;100.00
81230;BME280;70701;44.452;18.652;2024-01-16T02:16:02;98346.94;;;0.89;100.00
81230;BME280;70701;44.452;18.652;2024-01-16T02:18:29;98344.22;;;0.92;100.00
81230;BME280;70701;44.452;18.652;2024-01-16T02:21:00;98342.25;;;0.89;100.00
81230;BME280;70701;44.452;18.652;2024-01-16T02:23:29;98324.22;;;0.88;100.00
81230;BME280;70701;44.452;18.652;2024-01-16T02:25:55;98344.22;;;0.92;100.00
81230;BME280;70701;44.452;18.652;2024-01-16T02:28:21;98358.94;;;0.45;100.00
81230;BME280;70701;44.452;18.652;2024-01-16T02:30:46;98364.38;;;0.30;100.00
81230;BME280;70701;44.452;18.652;2024-01-16T02:33:12;98356.16;;;0.37;100.00
81230;BME280;70701;44.452;18.652;2024-01-16T02:35:38;98355.75;;;0.35;100.00
81230;BME280;70701;44.452;18.652;2024-01-16T02:38:04;98371.78;;;0.33;100.00
81230;BME280;70701;44.452;18.652;2024-01-16T02:40:30;98365.63;;;0.47;100.00
81230;BME280;70701;44.452;18.652;2024-01-16T02:42:55;98366.06;;;0.67;100.00
81230;BME280;70701;44.452;18.652;2024-01-16T02:45:21;98375.53;;;0.77;100.00
81230;BME280;70701;44.452;18.652;2024-01-16T02:47:47;98360.56;;;0.64;100.00
81230;BME280;70701;44.452;18.652;2024-01-16T02:50:13;98377.00;;;0.64;100.00
81230;BME280;70701;44.452;18.652;2024-01-16T02:52:39;98391.75;;;0.30;100.00
81230;BME280;70701;44.452;18.652;2024-01-16T02:55:05;98396.41;;;0.19;100.00
81230;BME280;70701;44.452;18.652;2024-01-16T02:57:31;98406.53;;;0.15;100.00
81230;BME280;70701;44.452;18.652;2024-01-16T02:59:57;98410.53;;;0.28;100.00
81230;BME280;70701;44.452;18.652;2024-01-16T03:02:22;98419.53;;;0.29;100.00
81230;BME280;70701;44.452;18.652;2024-01-16T03:04:49;98396.50;;;0.41;100.00
81230;BME280;70701;44.452;18.652;2024-01-16T03:07:15;98395.03;;;0.61;100.00
81230;BME280;70701;44.452;18.652;2024-01-16T03:09:41;98392.31;;;0.65;100.00
81230;BME280;70701;44.452;18.652;2024-01-16T03:12:06;98394.28;;;0.75;100.00
81230;BME280;70701;44.452;18.652;2024-01-16T03:14:32;98398.22;;;0.77;100.00
81230;BME280;70701;44.452;18.652;2024-01-16T03:17:03;98399.00;;;0.78;100.00
81230;BME280;70701;44.452;18.652;2024-01-16T03:19:29;98403.31;;;0.72;100.00
81230;BME280;70701;44.452;18.652;2024-01-16T03:21:55;98416.53;;;0.52;100.00
81230;BME280;70701;44.452;18.652;2024-01-16T03:24:21;98425.09;;;0.47;100.00
81230;BME280;70701;44.452;18.652;2024-01-16T03:26:46;98420.03;;;0.45;100.00
81230;BME280;70701;44.452;18.652;2024-01-16T03:29:12;98420.78;;;0.42;100.00
81230;BME280;70701;44.452;18.652;2024-01-16T03:31:38;98425.88;;;0.44;100.00
81230;BME280;70701;44.452;18.652;2024-01-16T03:34:03;98422.41;;;0.57;100.00
81230;BME280;70701;44.452;18.652;2024-01-16T03:36:29;98400.88;;;0.60;100.00
81230;BME280;70701;44.452;18.652;2024-01-16T03:38:55;98420.91;;;0.71;100.00
81230;BME280;70701;44.452;18.652;2024-01-16T03:41:20;98416.22;;;0.71;100.00
81230;BME280;70701;44.452;18.652;2024-01-16T03:43:46;98417.03;;;0.79;100.00
81230;BME280;70701;44.452;18.652;2024-01-16T03:46:12;98420.19;;;0.81;100.00
81230;BME280;70701;44.452;18.652;2024-01-16T03:48:37;98424.09;;;0.80;100.00
81230;BME280;70701;44.452;18.652;2024-01-16T03:51:03;98440.13;;;0.74;100.00
81230;BME280;70701;44.452;18.652;2024-01-16T03:53:29;98435.09;;;0.87;100.00
81230;BME280;70701;44.452;18.652;2024-01-16T03:55:55;98450.38;;;0.92;100.00
81230;BME280;70701;44.452;18.652;2024-01-16T03:58:21;98454.25;;;0.84;100.00
81230;BME280;70701;44.452;18.652;2024-01-16T04:00:48;98444.88;;;0.85;100.00
81230;BME280;70701;44.452;18.652;2024-01-16T04:03:16;98452.69;;;0.79;100.00
81230;BME280;70701;44.452;18.652;2024-01-16T04:05:42;98449.53;;;0.81;100.00
81230;BME280;70701;44.452;18.652;2024-01-16T04:08:08;98453.47;;;0.80;100.00
81230;BME280;70701;44.452;18.652;2024-01-16T04:10:34;98443.25;;;0.76;100.00
81230;BME280;70701;44.452;18.652;2024-01-16T04:13:03;98443.69;;;0.82;100.00
81230;BME280;70701;44.452;18.652;2024-01-16T04:15:28;98437.41;;;0.82;100.00
81230;BME280;70701;44.452;18.652;2024-01-16T04:17:54;98442.13;;;0.85;100.00
81230;BME280;70701;44.452;18.652;2024-01-16T04:20:20;98448.78;;;0.84;100.00
81230;BME280;70701;44.452;18.652;2024-01-16T04:22:46;98472.31;;;0.85;100.00
81230;BME280;70701;44.452;18.652;2024-01-16T04:25:12;98475.41;;;0.83;100.00
81230;BME280;70701;44.452;18.652;2024-01-16T04:27:38;98479.72;;;0.84;100.00
81230;BME280;70701;44.452;18.652;2024-01-16T04:30:04;98478.16;;;0.83;100.00
81230;BME280;70701;44.452;18.652;2024-01-16T04:32:30;98477.75;;;0.77;100.00
81230;BME280;70701;44.452;18.652;2024-01-16T04:34:56;98486.38;;;0.83;100.00
81230;BME280;70701;44.452;18.652;2024-01-16T04:37:21;98482.81;;;0.72;100.00
81230;BME280;70701;44.452;18.652;2024-01-16T04:39:47;98504.81;;;0.86;100.00
81230;BME280;70701;44.452;18.652;2024-01-16T04:42:13;98509.16;;;0.94;100.00
81230;BME280;70701;44.452;18.652;2024-01-16T04:44:38;98508.34;;;0.87;100.00
81230;BME280;70701;44.452;18.652;2024-01-16T04:47:04;98499.72;;;0.85;100.00
81230;BME280;70701;44.452;18.652;2024-01-16T04:49:30;98517.34;;;0.87;100.00
81230;BME280;70701;44.452;18.652;2024-01-16T04:51:56;98515.34;;;0.77;100.00
81230;BME280;70701;44.452;18.652;2024-01-16T04:54:22;98517.69;;;0.78;100.00
81230;BME280;70701;44.452;18.652;2024-01-16T04:56:47;98513.00;;;0.75;100.00
81230;BME280;70701;44.452;18.652;2024-01-16T04:59:13;98517.25;;;0.69;100.00
81230;BME280;70701;44.452;18.652;2024-01-16T05:01:38;98526.63;;;0.65;100.00
81230;BME280;70701;44.452;18.652;2024-01-16T05:04:04;98529.22;;;0.40;100.00
81230;BME280;70701;44.452;18.652;2024-01-16T05:06:30;98529.53;;;0.31;100.00
81230;BME280;70701;44.452;18.652;2024-01-16T05:08:56;98524.06;;;0.31;100.00
81230;BME280;70701;44.452;18.652;2024-01-16T05:11:22;98529.03;;;0.18;100.00
81230;BME280;70701;44.452;18.652;2024-01-16T05:13:47;98541.94;;;0.14;100.00
81230;BME280;70701;44.452;18.652;2024-01-16T05:16:13;98542.25;;;0.09;100.00
81230;BME280;70701;44.452;18.652;2024-01-16T05:18:41;98546.16;;;0.04;100.00
81230;BME280;70701;44.452;18.652;2024-01-16T05:21:08;98541.22;;;0.24;100.00
81230;BME280;70701;44.452;18.652;2024-01-16T05:23:34;98535.44;;;0.36;100.00
81230;BME280;70701;44.452;18.652;2024-01-16T05:25:59;98540.59;;;0.49;100.00
81230;BME280;70701;44.452;18.652;2024-01-16T05:28:25;98556.03;;;0.16;100.00
81230;BME280;70701;44.452;18.652;2024-01-16T05:30:51;98572.72;;;0.04;100.00
81230;BME280;70701;44.452;18.652;2024-01-16T05:33:16;98564.47;;;-0.04;100.00
81230;BME280;70701;44.452;18.652;2024-01-16T05:35:42;98573.50;;;0.01;100.00
81230;BME280;70701;44.452;18.652;2024-01-16T05:38:07;98574.91;;;0.25;100.00
81230;BME280;70701;44.452;18.652;2024-01-16T05:40:33;98571.06;;;0.36;100.00
81230;BME280;70701;44.452;18.652;2024-01-16T05:42:59;98572.31;;;0.46;100.00
81230;BME280;70701;44.452;18.652;2024-01-16T05:45:24;98572.81;;;0.59;100.00
81230;BME280;70701;44.452;18.652;2024-01-16T05:47:50;98572.88;;;0.70;100.00
81230;BME280;70701;44.452;18.652;2024-01-16T05:50:16;98577.97;;;0.68;100.00
81230;BME280;70701;44.452;18.652;2024-01-16T05:52:43;98580.31;;;0.66;100.00
81230;BME280;70701;44.452;18.652;2024-01-16T05:55:09;98588.16;;;0.71;100.00
81230;BME280;70701;44.452;18.652;2024-01-16T05:57:35;98583.00;;;0.58;100.00
81230;BME280;70701;44.452;18.652;2024-01-16T06:00:02;98593.56;;;0.56;100.00
81230;BME280;70701;44.452;18.652;2024-01-16T06:02:31;98597.63;;;0.29;100.00
81230;BME280;70701;44.452;18.652;2024-01-16T06:04:56;98595.91;;;0.10;100.00
81230;BME280;70701;44.452;18.652;2024-01-16T06:07:22;98598.84;;;0.35;100.00
81230;BME280;70701;44.452;18.652;2024-01-16T06:09:48;98604.84;;;0.51;100.00
81230;BME280;70701;44.452;18.652;2024-01-16T06:12:14;98599.84;;;0.61;100.00
81230;BME280;70701;44.452;18.652;2024-01-16T06:14:39;98595.22;;;0.72;100.00
81230;BME280;70701;44.452;18.652;2024-01-16T06:17:05;98602.91;;;0.52;100.00
81230;BME280;70701;44.452;18.652;2024-01-16T06:19:34;98601.81;;;0.15;100.00
81230;BME280;70701;44.452;18.652;2024-01-16T06:22:00;98612.84;;;0.26;100.00
81230;BME280;70701;44.452;18.652;2024-01-16T06:24:26;98614.78;;;0.22;100.00
81230;BME280;70701;44.452;18.652;2024-01-16T06:26:51;98621.84;;;0.23;100.00
81230;BME280;70701;44.452;18.652;2024-01-16T06:29:17;98620.00;;;0.34;100.00
81230;BME280;70701;44.452;18.652;2024-01-16T06:31:43;98621.91;;;0.30;100.00
81230;BME280;70701;44.452;18.652;2024-01-16T06:34:08;98631.59;;;0.21;100.00
81230;BME280;70701;44.452;18.652;2024-01-16T06:36:34;98632.91;;;0.34;100.00
81230;BME280;70701;44.452;18.652;2024-01-16T06:39:00;98642.28;;;0.33;100.00
81230;BME280;70701;44.452;18.652;2024-01-16T06:41:25;98642.25;;;0.29;100.00
81230;BME280;70701;44.452;18.652;2024-01-16T06:43:51;98647.66;;;0.22;100.00
81230;BME280;70701;44.452;18.652;2024-01-16T06:46:18;98656.88;;;0.44;100.00
81230;BME280;70701;44.452;18.652;2024-01-16T06:48:44;98652.13;;;0.41;100.00
81230;BME280;70701;44.452;18.652;2024-01-16T06:51:09;98644.63;;;0.31;100.00
81230;BME280;70701;44.452;18.652;2024-01-16T06:53:39;98656.69;;;0.26;100.00
81230;BME280;70701;44.452;18.652;2024-01-16T06:56:06;98662.16;;;0.26;100.00
81230;BME280;70701;44.452;18.652;2024-01-16T06:58:33;98659.84;;;0.25;100.00
81230;BME280;70701;44.452;18.652;2024-01-16T07:00:59;98667.38;;;0.38;100.00
81230;BME280;70701;44.452;18.652;2024-01-16T07:03:26;98667.78;;;0.41;100.00
81230;BME280;70701;44.452;18.652;2024-01-16T07:05:51;98671.25;;;0.30;100.00
81230;BME280;70701;44.452;18.652;2024-01-16T07:08:17;98675.69;;;0.46;100.00
81230;BME280;70701;44.452;18.652;2024-01-16T07:10:42;98680.59;;;0.70;100.00
81230;BME280;70701;44.452;18.652;2024-01-16T07:13:08;98679.06;;;0.76;100.00
81230;BME280;70701;44.452;18.652;2024-01-16T07:15:34;98693.34;;;0.96;100.00
81230;BME280;70701;44.452;18.652;2024-01-16T07:17:59;98694.13;;;0.97;100.00
81230;BME280;70701;44.452;18.652;2024-01-16T07:20:25;98699.28;;;1.06;100.00
81230;BME280;70701;44.452;18.652;2024-01-16T07:22:50;98698.50;;;1.09;100.00
81230;BME280;70701;44.452;18.652;2024-01-16T07:25:17;98711.13;;;1.17;99.78
81230;BME280;70701;44.452;18.652;2024-01-16T07:27:42;98710.34;;;1.16;99.78
81230;BME280;70701;44.452;18.652;2024-01-16T07:30:11;98709.16;;;1.17;99.13
81230;BME280;70701;44.452;18.652;2024-01-16T07:32:36;98713.44;;;1.11;98.76
81230;BME280;70701;44.452;18.652;2024-01-16T07:35:02;98720.47;;;1.12;99.34
81230;BME280;70701;44.452;18.652;2024-01-16T07:37:28;98715.84;;;1.16;99.65
81230;BME280;70701;44.452;18.652;2024-01-16T07:39:54;98725.63;;;1.17;98.86
81230;BME280;70701;44.452;18.652;2024-01-16T07:42:19;98725.22;;;1.15;99.15
81230;BME280;70701;44.452;18.652;2024-01-16T07:44:45;98721.75;;;1.22;99.23
81230;BME280;70701;44.452;18.652;2024-01-16T07:47:11;98726.09;;;1.27;98.89
81230;BME280;70701;44.452;18.652;2024-01-16T07:49:38;98729.69;;;1.38;98.86
81230;BME280;70701;44.452;18.652;2024-01-16T07:52:04;98728.81;;;1.27;98.26
81230;BME280;70701;44.452;18.652;2024-01-16T07:54:29;98723.41;;;1.34;98.19
81230;BME280;70701;44.452;18.652;2024-01-16T07:56:56;98730.50;;;1.46;97.60
81230;BME280;70701;44.452;18.652;2024-01-16T07:59:22;98739.16;;;1.48;97.58
81230;BME280;70701;44.452;18.652;2024-01-16T08:01:47;98743.19;;;1.65;97.23
81230;BME280;70701;44.452;18.652;2024-01-16T08:04:13;98742.38;;;1.61;96.48
81230;BME280;70701;44.452;18.652;2024-01-16T08:06:39;98754.97;;;1.65;96.02
81230;BME280;70701;44.452;18.652;2024-01-16T08:09:04;98768.66;;;1.58;95.72
81230;BME280;70701;44.452;18.652;2024-01-16T08:11:31;98768.63;;;1.54;95.94
81230;BME280;70701;44.452;18.652;2024-01-16T08:13:57;98774.56;;;1.64;96.33
81230;BME280;70701;44.452;18.652;2024-01-16T08:16:22;98783.22;;;1.69;96.44
81230;BME280;70701;44.452;18.652;2024-01-16T08:18:48;98779.69;;;1.69;96.06
81230;BME280;70701;44.452;18.652;2024-01-16T08:21:13;98785.59;;;1.67;95.60
81230;BME280;70701;44.452;18.652;2024-01-16T08:23:39;98780.97;;;1.82;95.38
81230;BME280;70701;44.452;18.652;2024-01-16T08:26:05;98790.75;;;1.83;95.08
81230;BME280;70701;44.452;18.652;2024-01-16T08:28:30;98790.34;;;1.81;94.61
81230;BME280;70701;44.452;18.652;2024-01-16T08:30:56;98795.44;;;1.79;95.40
81230;BME280;70701;44.452;18.652;2024-01-16T08:33:22;98802.16;;;1.89;95.33
81230;BME280;70701;44.452;18.652;2024-01-16T08:35:47;98806.97;;;2.03;94.38
81230;BME280;70701;44.452;18.652;2024-01-16T08:38:13;98812.47;;;2.03;94.02
81230;BME280;70701;44.452;18.652;2024-01-16T08:40:39;98810.91;;;2.05;93.68
81230;BME280;70701;44.452;18.652;2024-01-16T08:43:05;98805.44;;;2.09;93.77
81230;BME280;70701;44.452;18.652;2024-01-16T08:45:30;98798.38;;;2.15;93.33
81230;BME280;70701;44.452;18.652;2024-01-16T08:47:56;98798.78;;;2.17;93.51
81230;BME280;70701;44.452;18.652;2024-01-16T08:50:22;98794.50;;;2.30;93.35
81230;BME280;70701;44.452;18.652;2024-01-16T08:52:48;98806.31;;;2.27;92.46
81230;BME280;70701;44.452;18.652;2024-01-16T08:55:14;98820.91;;;2.42;91.74
81230;BME280;70701;44.452;18.652;2024-01-16T08:57:40;98822.44;;;2.43;90.86
81230;BME280;70701;44.452;18.652;2024-01-16T09:00:06;98825.25;;;2.54;91.27
81230;BME280;70701;44.452;18.652;2024-01-16T09:02:36;98825.25;;;2.58;89.89
81230;BME280;70701;44.452;18.652;2024-01-16T09:05:02;98824.47;;;2.57;89.25
81230;BME280;70701;44.452;18.652;2024-01-16T09:07:28;98818.19;;;2.60;89.67
81230;BME280;70701;44.452;18.652;2024-01-16T09:09:54;98828.41;;;2.60;89.37
81230;BME280;70701;44.452;18.652;2024-01-16T09:12:19;98826.50;;;2.75;89.56
81230;BME280;70701;44.452;18.652;2024-01-16T09:14:45;98826.13;;;2.80;88.87
81230;BME280;70701;44.452;18.652;2024-01-16T09:17:11;98828.47;;;2.81;89.20
81230;BME280;70701;44.452;18.652;2024-01-16T09:19:37;98831.19;;;2.78;88.97
81230;BME280;70701;44.452;18.652;2024-01-16T09:22:03;98833.53;;;2.72;88.42
81230;BME280;70701;44.452;18.652;2024-01-16T09:24:29;98822.97;;;2.74;88.78
81230;BME280;70701;44.452;18.652;2024-01-16T09:26:55;98825.72;;;2.74;88.64
81230;BME280;70701;44.452;18.652;2024-01-16T09:29:21;98835.50;;;2.71;88.98
81230;BME280;70701;44.452;18.652;2024-01-16T09:31:50;98829.25;;;2.78;88.75
81230;BME280;70701;44.452;18.652;2024-01-16T09:34:17;98824.09;;;2.66;89.28
81230;BME280;70701;44.452;18.652;2024-01-16T09:36:43;98817.78;;;2.55;89.29
81230;BME280;70701;44.452;18.652;2024-01-16T09:39:09;98817.44;;;2.63;89.60
81230;BME280;70701;44.452;18.652;2024-01-16T09:41:37;98816.69;;;2.81;89.30
81230;BME280;70701;44.452;18.652;2024-01-16T09:44:04;98817.03;;;2.72;89.43
81230;BME280;70701;44.452;18.652;2024-01-16T09:46:31;98811.97;;;2.88;89.26
81230;BME280;70701;44.452;18.652;2024-01-16T09:48:59;98811.59;;;3.15;88.86
81230;BME280;70701;44.452;18.652;2024-01-16T09:51:25;98804.13;;;3.23;87.26
81230;BME280;70701;44.452;18.652;2024-01-16T09:53:50;98807.69;;;3.52;85.99
81230;BME280;70701;44.452;18.652;2024-01-16T09:56:21;98801.34;;;3.80;84.80
81230;BME280;70701;44.452;18.652;2024-01-16T09:58:49;98802.94;;;3.74;84.43
81230;BME280;70701;44.452;18.652;2024-01-16T10:01:15;98808.88;;;3.47;85.46
81230;BME280;70701;44.452;18.652;2024-01-16T10:03:45;98797.88;;;3.44;85.89
81230;BME280;70701;44.452;18.652;2024-01-16T10:06:11;98797.88;;;3.47;86.16
81230;BME280;70701;44.452;18.652;2024-01-16T10:08:37;98800.63;;;3.40;86.32
81230;BME280;70701;44.452;18.652;2024-01-16T10:11:03;98804.94;;;3.41;86.95
81230;BME280;70701;44.452;18.652;2024-01-16T10:13:31;98803.75;;;3.49;86.66
81230;BME280;70701;44.452;18.652;2024-01-16T10:15:57;98798.25;;;3.53;86.43
81230;BME280;70701;44.452;18.652;2024-01-16T10:18:26;98802.59;;;3.33;86.76
81230;BME280;70701;44.452;18.652;2024-01-16T10:20:52;98800.22;;;3.27;87.54
81230;BME280;70701;44.452;18.652;2024-01-16T10:23:32;98782.91;;;3.41;86.84
81230;BME280;70701;44.452;18.652;2024-01-16T10:26:11;98774.63;;;3.52;86.76
81230;BME280;70701;44.452;18.652;2024-01-16T10:28:42;98780.13;;;3.59;86.54
81230;BME280;70701;44.452;18.652;2024-01-16T10:31:09;98767.53;;;3.62;86.77
81230;BME280;70701;44.452;18.652;2024-01-16T10:33:37;98763.59;;;3.70;86.58
81230;BME280;70701;44.452;18.652;2024-01-16T10:38:40;98752.09;;;4.00;85.48
81230;BME280;70701;44.452;18.652;2024-01-16T10:41:14;98758.81;;;3.92;85.26
81230;BME280;70701;44.452;18.652;2024-01-16T10:43:41;98758.78;;;4.03;85.46
81230;BME280;70701;44.452;18.652;2024-01-16T10:48:34;98756.75;;;4.21;84.31
81230;BME280;70701;44.452;18.652;2024-01-16T10:51:01;98752.44;;;4.17;84.24
81230;BME280;70701;44.452;18.652;2024-01-16T10:53:32;98749.63;;;4.20;84.54
81230;BME280;70701;44.452;18.652;2024-01-16T10:55:59;98754.72;;;4.33;84.20
81230;BME280;70701;44.452;18.652;2024-01-16T10:58:26;98752.34;;;4.31;84.92
81230;BME280;70701;44.452;18.652;2024-01-16T11:00:54;98757.44;;;4.43;84.06
81230;BME280;70701;44.452;18.652;2024-01-16T11:03:47;98749.56;;;4.42;84.74
81230;BME280;70701;44.452;18.652;2024-01-16T11:06:18;98758.50;;;4.64;83.33
81230;BME280;70701;44.452;18.652;2024-01-16T11:08:48;98757.28;;;4.68;82.44
81230;BME280;70701;44.452;18.652;2024-01-16T11:11:15;98753.34;;;4.70;82.68
81230;BME280;70701;44.452;18.652;2024-01-16T11:13:41;98759.19;;;4.79;82.00
81230;BME280;70701;44.452;18.652;2024-01-16T11:16:12;98750.91;;;4.82;81.51
81230;BME280;70701;44.452;18.652;2024-01-16T11:18:38;98750.47;;;4.84;80.63
81230;BME280;70701;44.452;18.652;2024-01-16T11:21:07;98740.13;;;4.99;80.41
81230;BME280;70701;44.452;18.652;2024-01-16T11:23:34;98741.69;;;5.00;80.41
81230;BME280;70701;44.452;18.652;2024-01-16T11:26:33;98731.00;;;5.05;79.98
81230;BME280;70701;44.452;18.652;2024-01-16T11:29:00;98733.75;;;5.05;79.33
81230;BME280;70701;44.452;18.652;2024-01-16T11:31:34;98727.03;;;5.06;78.70
81230;BME280;70701;44.452;18.652;2024-01-16T11:34:01;98738.47;;;5.09;76.58
81230;BME280;70701;44.452;18.652;2024-01-16T11:39:17;98726.97;;;5.14;73.05
81230;BME280;70701;44.452;18.652;2024-01-16T11:44:46;98724.16;;;5.21;69.89
81230;BME280;70701;44.452;18.652;2024-01-16T11:47:20;98726.00;;;5.35;69.58
81230;BME280;70701;44.452;18.652;2024-01-16T11:50:12;98730.75;;;5.34;66.97
81230;BME280;70701;44.452;18.652;2024-01-16T11:52:42;98733.13;;;5.32;64.27
81230;BME280;70701;44.452;18.652;2024-01-16T11:55:29;98720.47;;;5.35;64.25
81230;BME280;70701;44.452;18.652;2024-01-16T12:01:05;98721.31;;;5.32;63.73
81230;BME280;70701;44.452;18.652;2024-01-16T12:03:32;98726.00;;;5.35;61.85
81230;BME280;70701;44.452;18.652;2024-01-16T12:05:59;98722.78;;;5.43;63.10
81230;BME280;70701;44.452;18.652;2024-01-16T12:08:25;98725.91;;;5.45;61.69
81230;BME280;70701;44.452;18.652;2024-01-16T12:10:51;98723.16;;;5.45;61.38
81230;BME280;70701;44.452;18.652;2024-01-16T12:13:17;98718.16;;;5.33;61.58
81230;BME280;70701;44.452;18.652;2024-01-16T12:15:44;98709.53;;;5.28;61.23
81230;BME280;70701;44.452;18.652;2024-01-16T12:18:10;98702.00;;;5.28;61.75
81230;BME280;70701;44.452;18.652;2024-01-16T12:20:36;98712.59;;;5.37;61.00
81230;BME280;70701;44.452;18.652;2024-01-16T12:23:04;98705.03;;;5.44;61.49
81230;BME280;70701;44.452;18.652;2024-01-16T12:25:34;98704.53;;;5.53;61.04
81230;BME280;70701;44.452;18.652;2024-01-16T12:28:02;98706.16;;;5.47;61.92
81230;BME280;70701;44.452;18.652;2024-01-16T12:30:30;98703.72;;;5.56;61.52
81230;BME280;70701;44.452;18.652;2024-01-16T12:33:13;98685.97;;;5.54;61.38
81230;BME280;70701;44.452;18.652;2024-01-16T12:35:43;98696.94;;;5.61;61.19
81230;BME280;70701;44.452;18.652;2024-01-16T12:38:13;98692.22;;;5.61;60.31
81230;BME280;70701;44.452;18.652;2024-01-16T12:40:40;98690.28;;;5.55;61.08
81230;BME280;70701;44.452;18.652;2024-01-16T12:43:08;98694.19;;;5.57;60.59
81230;BME280;70701;44.452;18.652;2024-01-16T12:45:38;98682.78;;;5.55;60.07
81230;BME280;70701;44.452;18.652;2024-01-16T12:48:04;98689.31;;;5.72;59.80
81230;BME280;70701;44.452;18.652;2024-01-16T12:50:31;98680.31;;;5.64;60.14
81230;BME280;70701;44.452;18.652;2024-01-16T12:53:08;98683.06;;;5.64;60.15
81230;BME280;70701;44.452;18.652;2024-01-16T12:55:36;98677.06;;;5.73;59.92
81230;BME280;70701;44.452;18.652;2024-01-16T12:58:15;98675.53;;;5.69;60.10
81230;BME280;70701;44.452;18.652;2024-01-16T13:00:45;98673.09;;;5.74;59.37
81230;BME280;70701;44.452;18.652;2024-01-16T13:03:19;98674.69;;;5.75;59.70
81230;BME280;70701;44.452;18.652;2024-01-16T13:05:52;98678.94;;;5.80;59.70
81230;BME280;70701;44.452;18.652;2024-01-16T13:08:20;98673.56;;;5.69;58.63